Time;durP1;ratioP1;P1;durP2;ratioP2;P2;SDS_P1;SDS_P2;PMS_P1;PMS_P2;Temp;Humidity;BMP_temperature;BMP_pressure;BME280_temperature;BME280_humidity;BME280_pressure;Samples;Min_cycle;Max_cycle;Signal;HPM_P1;HPM_P2
2022/10/23 00:01:27;;;;;;;1.43;1.43;;;11.80;99.90;;;;;;5061212;28;20207;-50
2022/10/23 00:03:56;;;;;;;1.20;1.03;;;11.80;99.90;;;;;;5068257;28;20216;-50
2022/10/23 00:06:24;;;;;;;2.43;1.17;;;11.80;99.90;;;;;;5059392;28;20227;-50
2022/10/23 00:08:52;;;;;;;1.40;1.27;;;11.70;99.90;;;;;;5070204;28;20270;-50
2022/10/23 00:11:21;;;;;;;3.23;1.20;;;11.60;99.90;;;;;;5064592;28;20233;-50
2022/10/23 00:13:51;;;;;;;1.63;1.50;;;11.50;99.90;;;;;;5064523;28;20246;-50
2022/10/23 00:16:18;;;;;;;2.53;1.10;;;11.50;99.90;;;;;;5072972;28;20299;-50
2022/10/23 00:18:45;;;;;;;4.90;1.30;;;11.50;99.90;;;;;;5070892;28;20203;-50
2022/10/23 00:21:14;;;;;;;1.33;1.20;;;11.50;99.90;;;;;;5065660;28;20296;-51
2022/10/23 00:23:41;;;;;;;1.10;1.00;;;11.50;99.90;;;;;;5072120;28;20227;-50
2022/10/23 00:26:10;;;;;;;1.50;1.13;;;11.30;99.90;;;;;;5066699;28;20648;-50
2022/10/23 00:28:37;;;;;;;1.50;1.20;;;11.30;99.90;;;;;;5060878;28;20605;-50
2022/10/23 00:31:06;;;;;;;2.10;1.83;;;11.20;99.90;;;;;;5071524;28;20200;-51
2022/10/23 00:33:33;;;;;;;1.33;1.20;;;11.20;99.90;;;;;;5063729;28;20638;-50
2022/10/23 00:36:00;;;;;;;1.30;1.20;;;11.20;99.90;;;;;;5072304;28;20220;-50
2022/10/23 00:38:27;;;;;;;3.20;1.10;;;11.10;99.90;;;;;;5063639;28;20226;-50
2022/10/23 00:40:54;;;;;;;4.10;1.80;;;11.10;99.90;;;;;;5065619;28;21072;-50
2022/10/23 00:43:23;;;;;;;2.73;1.30;;;11.00;99.90;;;;;;5058665;28;20718;-50
2022/10/23 00:45:51;;;;;;;2.97;1.53;;;11.00;99.90;;;;;;5059978;28;20220;-50
2022/10/23 00:48:19;;;;;;;1.13;1.13;;;11.00;99.90;;;;;;5064329;28;20206;-50
2022/10/23 00:50:48;;;;;;;1.77;1.57;;;11.00;99.90;;;;;;5056129;28;20204;-50
2022/10/23 00:53:17;;;;;;;1.47;1.10;;;11.00;99.90;;;;;;5057753;28;20200;-49
2022/10/23 00:55:48;;;;;;;3.73;1.40;;;11.00;99.90;;;;;;5065064;28;20226;-50
2022/10/23 00:58:17;;;;;;;0.97;0.97;;;10.90;99.90;;;;;;5058292;28;20724;-50
2022/10/23 01:00:46;;;;;;;2.33;1.37;;;11.00;99.90;;;;;;5051924;28;20204;-50
2022/10/23 01:03:15;;;;;;;1.37;1.30;;;10.90;99.90;;;;;;5050625;28;20246;-50
2022/10/23 01:05:49;;;;;;;1.43;1.23;;;10.90;99.90;;;;;;5061097;28;20230;-49
2022/10/23 01:08:23;;;;;;;0.90;0.90;;;11.00;99.90;;;;;;5068064;28;20287;-50
2022/10/23 01:10:54;;;;;;;2.43;1.23;;;11.00;99.90;;;;;;5053407;28;20617;-50
2022/10/23 01:13:30;;;;;;;0.90;0.77;;;11.00;99.90;;;;;;5061016;28;20204;-50
2022/10/23 01:16:05;;;;;;;1.40;1.30;;;11.00;99.90;;;;;;5054882;28;20223;-50
2022/10/23 01:18:41;;;;;;;0.93;0.93;;;11.00;99.90;;;;;;5071701;28;20299;-50
2022/10/23 01:21:15;;;;;;;1.00;1.00;;;10.90;99.90;;;;;;5060052;28;20209;-50
2022/10/23 01:24:07;;;;;;;2.03;0.70;;;11.00;99.90;;;;;;5061427;28;20223;-50
2022/10/23 01:26:50;;;;;;;0.93;0.60;;;11.20;99.90;;;;;;5071565;28;20204;-50
2022/10/23 01:29:25;;;;;;;0.83;0.63;;;11.10;99.90;;;;;;5071810;28;20270;-50
2022/10/23 01:31:58;;;;;;;1.27;0.40;;;11.10;99.90;;;;;;5067978;28;20201;-51
2022/10/23 01:34:31;;;;;;;1.47;0.40;;;11.20;99.90;;;;;;5059461;28;20227;-50
2022/10/23 01:37:00;;;;;;;0.77;0.40;;;11.30;99.90;;;;;;5060270;28;20269;-49
2022/10/23 01:39:33;;;;;;;0.27;0.23;;;11.40;99.90;;;;;;5056944;28;20245;-50
2022/10/23 01:42:06;;;;;;;0.37;0.20;;;11.40;99.90;;;;;;5051072;28;20247;-50
2022/10/23 01:44:39;;;;;;;0.30;0.30;;;11.50;99.90;;;;;;5058191;28;20626;-50
2022/10/23 01:47:09;;;;;;;0.50;0.20;;;11.60;99.90;;;;;;5055342;28;20551;-50
2022/10/23 01:49:39;;;;;;;1.37;0.30;;;11.70;99.90;;;;;;5071415;28;20203;-51
2022/10/23 01:52:09;;;;;;;0.40;0.17;;;11.70;99.90;;;;;;5058039;28;20289;-50
2022/10/23 01:54:39;;;;;;;0.40;0.30;;;11.60;99.90;;;;;;5067024;28;20223;-50
2022/10/23 01:57:10;;;;;;;1.50;0.60;;;11.60;99.90;;;;;;5056555;28;20204;-50
2022/10/23 01:59:43;;;;;;;2.87;0.80;;;11.40;99.90;;;;;;5062960;28;20243;-50
2022/10/23 02:02:12;;;;;;;2.87;0.50;;;11.40;99.90;;;;;;5071446;28;20200;-50
2022/10/23 02:04:45;;;;;;;2.40;0.67;;;11.30;99.90;;;;;;5068082;28;20220;-50
2022/10/23 02:07:12;;;;;;;2.80;0.90;;;11.20;99.90;;;;;;5056499;28;20554;-51
2022/10/23 02:09:40;;;;;;;1.77;1.40;;;11.10;99.90;;;;;;5065345;28;20282;-50
2022/10/23 02:12:10;;;;;;;0.70;0.70;;;11.10;99.90;;;;;;5062310;28;20665;-50
2022/10/23 02:14:45;;;;;;;4.83;0.90;;;11.10;99.90;;;;;;5061918;28;20231;-50
2022/10/23 02:17:21;;;;;;;1.03;1.00;;;11.00;99.90;;;;;;5062368;28;20211;-50
2022/10/23 02:19:56;;;;;;;0.63;0.60;;;10.90;99.90;;;;;;5063104;28;20196;-50
2022/10/23 02:22:27;;;;;;;0.80;0.80;;;10.90;99.90;;;;;;5063142;28;20279;-51
2022/10/23 02:24:59;;;;;;;0.63;0.63;;;10.90;99.90;;;;;;5072163;28;20232;-50
2022/10/23 02:27:31;;;;;;;0.80;0.80;;;10.90;99.90;;;;;;5066425;28;20193;-50
2022/10/23 02:30:04;;;;;;;2.20;0.70;;;10.90;99.90;;;;;;5063713;28;20248;-50
2022/10/23 02:32:33;;;;;;;2.57;0.70;;;11.00;99.90;;;;;;5054546;28;20670;-50
2022/10/23 02:35:00;;;;;;;1.47;0.60;;;11.10;99.90;;;;;;5058391;28;20222;-49
2022/10/23 02:37:28;;;;;;;1.10;1.10;;;11.00;99.90;;;;;;5057854;28;20210;-50
2022/10/23 02:39:55;;;;;;;0.70;0.60;;;11.00;99.90;;;;;;5073628;28;20199;-51
2022/10/23 02:42:26;;;;;;;1.50;0.97;;;11.00;99.90;;;;;;5074544;28;20205;-50
2022/10/23 02:45:06;;;;;;;4.30;0.80;;;11.00;99.90;;;;;;5074334;28;20278;-50
2022/10/23 02:47:47;;;;;;;2.33;1.10;;;10.90;99.90;;;;;;5071224;28;20196;-50
2022/10/23 02:50:25;;;;;;;2.07;1.10;;;10.90;99.90;;;;;;5065525;28;20197;-49
2022/10/23 02:52:59;;;;;;;0.77;0.77;;;11.00;99.90;;;;;;5061918;28;20428;-50
2022/10/23 02:55:39;;;;;;;0.90;0.80;;;11.00;99.90;;;;;;5065409;28;20216;-50
2022/10/23 02:58:12;;;;;;;0.73;0.73;;;10.90;99.90;;;;;;5063026;28;20261;-50
2022/10/23 03:00:46;;;;;;;1.07;0.87;;;10.80;99.90;;;;;;5060212;28;20201;-51
2022/10/23 03:03:17;;;;;;;0.80;0.80;;;10.80;99.90;;;;;;5055191;28;20258;-50
2022/10/23 03:05:44;;;;;;;1.30;0.90;;;10.70;99.90;;;;;;5057864;28;20698;-50
2022/10/23 03:08:13;;;;;;;0.70;0.60;;;10.60;99.90;;;;;;5055965;28;20204;-51
2022/10/23 03:10:41;;;;;;;0.90;0.70;;;10.60;99.90;;;;;;5057281;28;20194;-51
2022/10/23 03:13:09;;;;;;;1.77;1.07;;;10.60;99.90;;;;;;5055836;28;20270;-50
2022/10/23 03:15:36;;;;;;;0.70;0.67;;;10.60;99.90;;;;;;5059915;28;20220;-50
2022/10/23 03:18:05;;;;;;;1.07;0.70;;;10.60;99.90;;;;;;5058612;28;20197;-50
2022/10/23 03:20:32;;;;;;;1.03;0.60;;;10.50;99.90;;;;;;5060731;28;20224;-50
2022/10/23 03:22:59;;;;;;;0.93;0.60;;;10.50;99.90;;;;;;5054406;28;20224;-50
2022/10/23 03:25:26;;;;;;;0.93;0.90;;;10.50;99.90;;;;;;5068173;28;20235;-50
2022/10/23 03:27:53;;;;;;;0.67;0.67;;;10.50;99.90;;;;;;5069422;28;20662;-50
2022/10/23 03:30:20;;;;;;;1.00;0.40;;;10.50;99.90;;;;;;5063874;28;20192;-50
2022/10/23 03:32:47;;;;;;;0.50;0.50;;;10.50;99.90;;;;;;5054330;28;20267;-50
2022/10/23 03:35:16;;;;;;;0.73;0.50;;;10.50;99.90;;;;;;5052714;28;20901;-50
2022/10/23 03:37:43;;;;;;;0.73;0.50;;;10.50;99.90;;;;;;5058273;28;20199;-50
2022/10/23 03:40:11;;;;;;;0.83;0.70;;;10.50;99.90;;;;;;5053181;28;20209;-50
2022/10/23 03:42:38;;;;;;;2.10;0.70;;;10.40;99.90;;;;;;5057540;28;20662;-50
2022/10/23 03:45:06;;;;;;;0.60;0.60;;;10.40;99.90;;;;;;5060104;28;20278;-50
2022/10/23 03:47:34;;;;;;;0.90;0.90;;;10.30;99.90;;;;;;5054443;28;20279;-50
2022/10/23 03:50:01;;;;;;;0.80;0.80;;;10.30;99.90;;;;;;5052669;28;20250;-50
2022/10/23 03:52:29;;;;;;;1.57;0.90;;;10.20;99.90;;;;;;5052332;28;20306;-50
2022/10/23 03:54:56;;;;;;;0.87;0.87;;;10.10;99.90;;;;;;5056002;28;20239;-50
2022/10/23 03:57:24;;;;;;;2.97;1.47;;;10.10;99.90;;;;;;5056844;28;20200;-50
2022/10/23 03:59:51;;;;;;;3.63;0.90;;;10.10;99.90;;;;;;5061560;28;20210;-52
2022/10/23 04:02:18;;;;;;;0.80;0.80;;;10.20;99.90;;;;;;5053183;28;20671;-50
2022/10/23 04:04:45;;;;;;;1.23;1.17;;;10.20;99.90;;;;;;5052081;28;20422;-50
2022/10/23 04:07:12;;;;;;;3.13;1.30;;;10.20;99.90;;;;;;5058346;28;20673;-50
2022/10/23 04:09:41;;;;;;;1.93;1.10;;;10.10;99.90;;;;;;5057505;28;20195;-50
2022/10/23 04:12:08;;;;;;;1.07;0.80;;;10.20;99.90;;;;;;5059748;28;20208;-50
2022/10/23 04:14:35;;;;;;;1.17;1.17;;;10.20;99.90;;;;;;5054852;28;20247;-50
2022/10/23 04:17:02;;;;;;;0.70;0.70;;;10.10;99.90;;;;;;5052065;28;20193;-50
2022/10/23 04:19:29;;;;;;;0.70;0.70;;;10.10;99.90;;;;;;5052395;28;20194;-49
2022/10/23 04:21:57;;;;;;;1.57;0.57;;;10.10;99.90;;;;;;5052069;28;20611;-49
2022/10/23 04:24:24;;;;;;;0.60;0.60;;;10.20;99.90;;;;;;5052434;28;20314;-50
2022/10/23 04:26:53;;;;;;;0.50;0.50;;;10.20;99.90;;;;;;5059914;28;20208;-50
2022/10/23 04:29:22;;;;;;;2.93;0.73;;;10.20;99.90;;;;;;5061676;28;20782;-50
2022/10/23 04:31:50;;;;;;;1.33;0.90;;;10.20;99.90;;;;;;5070455;28;20265;-50
2022/10/23 04:34:17;;;;;;;1.13;1.13;;;10.20;99.90;;;;;;5070284;28;20266;-50
2022/10/23 04:36:44;;;;;;;0.80;0.80;;;10.30;99.90;;;;;;5070304;28;20193;-50
2022/10/23 04:39:11;;;;;;;1.50;1.37;;;10.20;99.90;;;;;;5069847;28;20205;-50
2022/10/23 04:41:39;;;;;;;1.73;1.20;;;10.20;99.90;;;;;;5056899;28;20197;-50
2022/10/23 04:44:08;;;;;;;1.13;1.03;;;10.20;99.90;;;;;;5053034;28;20227;-51
2022/10/23 04:46:35;;;;;;;1.10;0.90;;;10.30;99.90;;;;;;5055810;28;20258;-50
2022/10/23 04:49:02;;;;;;;1.33;1.23;;;10.40;99.90;;;;;;5051461;28;20204;-50
2022/10/23 04:51:29;;;;;;;2.00;1.03;;;10.50;99.90;;;;;;5051399;28;20197;-49
2022/10/23 04:53:56;;;;;;;1.57;1.00;;;10.50;99.90;;;;;;5051281;28;20198;-50
2022/10/23 04:56:23;;;;;;;0.93;0.93;;;10.30;99.90;;;;;;5054590;28;20274;-51
2022/10/23 04:58:52;;;;;;;4.30;2.60;;;10.40;99.90;;;;;;5055687;28;20226;-49
2022/10/23 05:01:20;;;;;;;0.83;0.80;;;10.40;99.90;;;;;;5062185;28;20228;-50
2022/10/23 05:03:50;;;;;;;2.10;1.10;;;10.40;99.90;;;;;;5055509;28;20219;-50
2022/10/23 05:06:17;;;;;;;1.00;0.77;;;10.30;99.90;;;;;;5051760;28;20854;-51
2022/10/23 05:08:47;;;;;;;3.30;1.80;;;10.20;99.90;;;;;;5058018;28;20203;-51
2022/10/23 05:11:14;;;;;;;6.33;2.07;;;10.10;99.90;;;;;;5053819;28;20670;-50
2022/10/23 05:13:41;;;;;;;2.20;1.80;;;10.00;99.90;;;;;;5059924;28;20197;-50
2022/10/23 05:16:08;;;;;;;2.83;2.10;;;10.00;99.90;;;;;;5069634;28;20217;-49
2022/10/23 05:18:40;;;;;;;2.90;2.30;;;10.00;99.90;;;;;;5067383;28;20582;-50
2022/10/23 05:21:13;;;;;;;2.00;1.90;;;10.00;99.90;;;;;;5054006;28;20598;-50
2022/10/23 05:23:42;;;;;;;5.87;2.93;;;10.00;99.90;;;;;;5064600;28;20224;-50
2022/10/23 05:26:09;;;;;;;4.17;3.00;;;9.90;99.90;;;;;;5056375;28;20283;-50
2022/10/23 05:28:36;;;;;;;2.40;1.93;;;9.90;99.90;;;;;;5060932;28;20276;-50
2022/10/23 05:31:04;;;;;;;2.33;1.20;;;9.90;99.90;;;;;;5059926;28;20194;-50
2022/10/23 05:33:32;;;;;;;1.17;0.90;;;9.90;99.90;;;;;;5058178;28;20256;-49
2022/10/23 05:36:01;;;;;;;1.67;1.57;;;9.90;99.90;;;;;;5071123;28;20222;-50
2022/10/23 05:38:32;;;;;;;1.97;1.60;;;9.90;99.90;;;;;;5055680;28;20199;-50
2022/10/23 05:40:59;;;;;;;1.63;1.50;;;9.80;99.90;;;;;;5058952;28;20261;-50
2022/10/23 05:43:29;;;;;;;1.00;1.00;;;9.90;99.90;;;;;;5059154;28;20250;-50
2022/10/23 05:45:56;;;;;;;1.10;1.00;;;9.80;99.90;;;;;;5067598;28;20231;-50
2022/10/23 05:48:23;;;;;;;2.50;1.00;;;9.80;99.90;;;;;;5068540;28;20203;-50
2022/10/23 05:50:50;;;;;;;2.93;1.67;;;9.80;99.90;;;;;;5058503;28;20253;-50
2022/10/23 05:53:19;;;;;;;1.23;1.20;;;9.80;99.90;;;;;;5065928;28;20203;-50
2022/10/23 05:55:46;;;;;;;1.37;1.33;;;9.70;99.90;;;;;;5066250;28;20266;-49
2022/10/23 05:58:13;;;;;;;2.33;2.17;;;9.70;99.90;;;;;;5069626;28;20193;-49
2022/10/23 06:00:40;;;;;;;2.37;2.23;;;9.80;99.90;;;;;;5063625;28;20250;-50
2022/10/23 06:03:07;;;;;;;1.83;1.63;;;9.80;99.90;;;;;;5069967;28;20249;-50
2022/10/23 06:05:34;;;;;;;2.07;1.53;;;9.80;99.90;;;;;;5068556;28;20218;-50
2022/10/23 06:08:01;;;;;;;1.73;1.60;;;9.80;99.90;;;;;;5062017;28;20197;-50
2022/10/23 06:10:31;;;;;;;1.80;1.63;;;9.80;99.90;;;;;;5063552;28;20194;-49
2022/10/23 06:12:57;;;;;;;3.17;2.70;;;9.80;99.90;;;;;;5068577;28;20666;-50
2022/10/23 06:15:24;;;;;;;2.20;2.03;;;9.80;99.90;;;;;;5058377;28;20710;-51
2022/10/23 06:17:51;;;;;;;4.20;2.40;;;9.80;99.90;;;;;;5059757;28;20199;-50
2022/10/23 06:20:19;;;;;;;3.50;2.00;;;10.00;99.90;;;;;;5065868;28;20228;-50
2022/10/23 06:22:46;;;;;;;2.53;2.30;;;10.00;99.90;;;;;;5070836;28;20210;-50
2022/10/23 06:25:13;;;;;;;2.17;1.73;;;10.10;99.90;;;;;;5068070;28;20224;-50
2022/10/23 06:27:41;;;;;;;2.20;1.70;;;10.20;99.90;;;;;;5062433;28;20200;-50
2022/10/23 06:30:09;;;;;;;2.33;2.13;;;10.20;99.90;;;;;;5068917;28;20666;-49
2022/10/23 06:32:36;;;;;;;5.97;2.00;;;10.30;99.90;;;;;;5071587;28;20193;-50
2022/10/23 06:35:04;;;;;;;5.93;3.33;;;10.40;99.90;;;;;;5062008;28;20216;-50
2022/10/23 06:37:34;;;;;;;12.07;5.43;;;10.50;99.90;;;;;;5067121;28;20257;-50
2022/10/23 06:40:01;;;;;;;6.63;4.93;;;10.60;99.90;;;;;;5068545;28;20699;-50
2022/10/23 06:42:29;;;;;;;7.97;6.80;;;10.80;99.90;;;;;;5063652;28;20716;-50
2022/10/23 06:44:57;;;;;;;9.37;6.43;;;10.90;99.90;;;;;;5062673;28;20652;-50
2022/10/23 06:47:24;;;;;;;6.40;5.80;;;11.00;99.90;;;;;;5060996;28;20247;-49
2022/10/23 06:49:51;;;;;;;5.40;4.90;;;11.00;99.90;;;;;;5066781;28;20199;-49
2022/10/23 06:52:18;;;;;;;8.97;7.77;;;11.10;99.90;;;;;;5056662;28;20196;-50
2022/10/23 06:54:45;;;;;;;6.80;6.13;;;11.20;99.90;;;;;;5068252;28;20201;-50
2022/10/23 06:57:12;;;;;;;10.03;7.20;;;11.30;99.90;;;;;;5059347;28;20201;-51
2022/10/23 06:59:39;;;;;;;7.00;6.30;;;11.40;99.90;;;;;;5053414;28;20196;-50
2022/10/23 07:02:07;;;;;;;7.57;6.70;;;11.40;99.90;;;;;;5059726;28;20204;-50
2022/10/23 07:04:34;;;;;;;8.70;6.30;;;11.60;99.90;;;;;;5054494;28;20281;-51
2022/10/23 07:07:01;;;;;;;6.13;5.53;;;11.70;99.90;;;;;;5072937;28;20257;-50
2022/10/23 07:09:28;;;;;;;5.83;5.37;;;11.80;99.90;;;;;;5073290;28;20203;-50
2022/10/23 07:11:55;;;;;;;3.80;3.40;;;11.90;99.90;;;;;;5065486;28;20207;-50
2022/10/23 07:14:22;;;;;;;4.03;3.47;;;12.00;99.90;;;;;;5073568;28;20290;-50
2022/10/23 07:16:49;;;;;;;2.97;2.40;;;12.10;99.90;;;;;;5073841;28;20675;-51
2022/10/23 07:19:17;;;;;;;3.53;2.90;;;12.10;99.90;;;;;;5071827;28;20244;-51
2022/10/23 07:21:44;;;;;;;5.00;4.50;;;12.20;99.90;;;;;;5065414;28;20196;-50
2022/10/23 07:24:11;;;;;;;3.73;3.53;;;12.30;99.90;;;;;;5061569;28;20271;-50
2022/10/23 07:26:40;;;;;;;5.13;3.70;;;12.40;99.90;;;;;;5057260;28;20256;-50
2022/10/23 07:29:07;;;;;;;2.57;2.40;;;12.40;99.90;;;;;;5062569;28;20197;-50
2022/10/23 07:31:34;;;;;;;2.07;1.97;;;12.50;99.90;;;;;;5071949;28;20739;-50
2022/10/23 07:34:01;;;;;;;3.27;2.30;;;12.60;99.90;;;;;;5062279;28;20257;-50
2022/10/23 07:36:29;;;;;;;5.63;2.70;;;12.70;99.90;;;;;;5067679;28;20258;-50
2022/10/23 07:38:56;;;;;;;2.73;2.47;;;12.80;99.90;;;;;;5067642;28;20258;-50
2022/10/23 07:41:23;;;;;;;2.97;2.33;;;13.00;99.90;;;;;;5065484;28;20260;-50
2022/10/23 07:43:53;;;;;;;3.60;3.23;;;13.00;99.90;;;;;;5066801;28;20197;-49
2022/10/23 07:46:20;;;;;;;3.37;2.87;;;13.20;99.90;;;;;;5061225;28;20228;-49
2022/10/23 07:48:50;;;;;;;3.57;2.83;;;13.30;99.90;;;;;;5062843;28;20201;-50
2022/10/23 07:51:17;;;;;;;3.13;2.90;;;13.40;99.90;;;;;;5061973;28;20251;-50
2022/10/23 07:53:46;;;;;;;4.53;3.17;;;13.60;99.90;;;;;;5057521;28;20200;-51
2022/10/23 07:56:16;;;;;;;6.10;2.90;;;13.70;99.90;;;;;;5062916;28;20698;-51
2022/10/23 07:58:43;;;;;;;2.90;2.70;;;13.90;99.90;;;;;;5068273;28;20198;-52
2022/10/23 08:01:18;;;;;;;4.03;2.27;;;13.90;99.90;;;;;;5058731;28;20272;-51
2022/10/23 08:03:48;;;;;;;2.87;2.67;;;13.90;99.90;;;;;;5065320;28;20198;-50
2022/10/23 08:06:15;;;;;;;2.27;2.17;;;13.90;99.90;;;;;;5057566;28;20222;-51
2022/10/23 08:08:42;;;;;;;2.70;2.50;;;14.00;99.90;;;;;;5056920;28;20205;-50
2022/10/23 08:11:14;;;;;;;2.33;2.23;;;14.10;99.90;;;;;;5059410;28;20224;-50
2022/10/23 08:13:42;;;;;;;3.00;1.93;;;14.20;99.90;;;;;;5057440;28;20206;-50
2022/10/23 08:16:09;;;;;;;3.47;2.27;;;14.20;99.90;;;;;;5054800;28;20255;-53
2022/10/23 08:18:37;;;;;;;6.03;3.00;;;14.20;99.90;;;;;;5066035;28;20201;-50
2022/10/23 08:21:04;;;;;;;14.30;6.03;;;14.20;99.90;;;;;;5060301;28;20228;-50
2022/10/23 08:23:31;;;;;;;12.53;10.13;;;14.30;99.90;;;;;;5066316;28;20209;-53
2022/10/23 08:25:59;;;;;;;7.20;6.50;;;14.30;99.90;;;;;;5067683;28;20221;-51
2022/10/23 08:28:28;;;;;;;10.23;7.90;;;14.40;99.90;;;;;;5062673;28;20212;-51
2022/10/23 08:30:56;;;;;;;8.57;7.40;;;14.50;99.90;;;;;;5062372;28;20209;-51
2022/10/23 08:33:23;;;;;;;15.23;13.40;;;14.60;99.90;;;;;;5057429;28;20455;-50
2022/10/23 08:35:51;;;;;;;16.13;14.53;;;14.80;99.90;;;;;;5065229;28;20213;-51
2022/10/23 08:38:18;;;;;;;12.17;9.27;;;14.90;99.90;;;;;;5065134;28;20663;-50
2022/10/23 08:40:46;;;;;;;13.23;11.83;;;15.00;99.90;;;;;;5067019;28;20205;-50
2022/10/23 08:43:19;;;;;;;8.83;7.87;;;15.50;99.90;;;;;;5064560;28;20202;-49
2022/10/23 08:45:51;;;;;;;12.03;8.57;;;16.30;99.90;;;;;;5065017;28;20308;-50
2022/10/23 08:48:23;;;;;;;3.73;3.53;;;17.40;99.90;;;;;;5061482;28;20694;-50
2022/10/23 08:50:54;;;;;;;7.40;6.78;;;18.50;99.90;;;;;;5058373;28;20454;-51
2022/10/23 08:53:26;;;;;;;4.90;4.50;;;19.00;99.90;;;;;;5066953;28;20617;-50
2022/10/23 08:55:58;;;;;;;5.03;4.63;;;19.50;99.90;;;;;;5064633;28;20702;-49
2022/10/23 08:58:31;;;;;;;4.57;4.17;;;19.70;99.90;;;;;;5066861;28;20243;-49
2022/10/23 09:01:00;;;;;;;3.20;3.00;;;20.00;99.90;;;;;;5062060;28;20235;-50
2022/10/23 09:03:27;;;;;;;3.17;2.70;;;19.60;99.90;;;;;;5066427;28;20255;-49
2022/10/23 09:06:04;;;;;;;7.17;3.97;;;19.70;99.90;;;;;;5056822;28;20320;-48
2022/10/23 09:08:42;;;;;;;3.23;3.13;;;19.50;99.90;;;;;;5062065;28;20254;-50
2022/10/23 09:11:16;;;;;;;4.20;3.83;;;19.40;99.90;;;;;;5063925;28;20724;-49
2022/10/23 09:14:15;;;;;;;3.63;3.47;;;19.20;99.90;;;;;;5067188;28;20674;-49
2022/10/23 09:16:55;;;;;;;3.37;3.17;;;19.70;99.90;;;;;;5065182;28;20193;-49
2022/10/23 09:19:26;;;;;;;7.77;6.40;;;20.20;99.90;;;;;;5056898;28;20213;-49
2022/10/23 09:21:55;;;;;;;5.83;5.43;;;20.90;99.90;;;;;;5061895;28;20244;-49
2022/10/23 09:24:24;;;;;;;5.67;5.17;;;21.00;99.90;;;;;;5065064;28;20193;-49
2022/10/23 09:26:53;;;;;;;6.07;5.63;;;20.70;99.90;;;;;;5064083;28;20220;-49
2022/10/23 09:29:23;;;;;;;12.70;7.07;;;20.70;99.90;;;;;;5065234;28;20196;-48
2022/10/23 09:31:54;;;;;;;6.50;6.07;;;20.40;99.90;;;;;;5066139;28;20200;-50
2022/10/23 09:34:23;;;;;;;5.70;5.07;;;20.60;99.90;;;;;;5064391;28;21873;-49
2022/10/23 09:36:52;;;;;;;6.27;5.67;;;20.80;99.90;;;;;;5064165;28;20205;-48
2022/10/23 09:39:24;;;;;;;9.40;6.07;;;20.40;99.90;;;;;;5063985;28;20205;-49
2022/10/23 09:41:51;;;;;;;17.93;13.30;;;20.00;99.90;;;;;;5065574;28;20258;-50
2022/10/23 09:44:21;;;;;;;26.67;17.73;;;20.10;99.90;;;;;;5057134;28;20197;-49
2022/10/23 09:46:49;;;;;;;11.77;7.03;;;20.00;99.90;;;;;;5061155;28;20217;-49
2022/10/23 09:49:20;;;;;;;13.73;11.70;;;19.40;99.90;;;;;;5060855;28;20276;-50
2022/10/23 09:51:56;;;;;;;13.50;12.17;;;19.20;99.90;;;;;;5068592;28;20197;-50
2022/10/23 09:54:24;;;;;;;3.03;2.17;;;19.00;99.90;;;;;;5055223;28;21328;-50
2022/10/23 09:56:52;;;;;;;2.30;1.60;;;19.00;99.90;;;;;;5059859;28;20205;-50
2022/10/23 09:59:25;;;;;;;3.33;3.13;;;18.80;99.90;;;;;;5057732;28;20262;-49
2022/10/23 10:01:55;;;;;;;5.53;5.13;;;18.60;99.90;;;;;;5057780;28;20746;-49
2022/10/23 10:04:34;;;;;;;4.00;3.70;;;18.30;99.90;;;;;;5061883;28;20613;-50
2022/10/23 10:07:04;;;;;;;7.27;3.07;;;18.40;99.90;;;;;;5058694;28;20194;-49
2022/10/23 10:09:31;;;;;;;2.33;2.23;;;18.30;99.90;;;;;;5056456;28;20725;-50
2022/10/23 10:12:14;;;;;;;4.33;2.50;;;18.40;99.90;;;;;;5065325;28;20552;-50
2022/10/23 10:14:55;;;;;;;5.13;4.80;;;18.60;99.90;;;;;;5059825;28;20231;-51
2022/10/23 10:17:33;;;;;;;5.07;4.57;;;18.40;99.90;;;;;;5062212;28;20201;-49
2022/10/23 10:20:23;;;;;;;4.83;4.00;;;18.10;99.90;;;;;;5059511;28;20197;-49
2022/10/23 10:22:55;;;;;;;4.00;3.63;;;18.30;99.90;;;;;;5058367;28;20213;-50
2022/10/23 10:25:29;;;;;;;4.93;3.43;;;18.50;99.90;;;;;;5059839;28;20225;-49
2022/10/23 10:28:09;;;;;;;4.97;4.27;;;18.70;99.90;;;;;;5061750;28;20201;-49
2022/10/23 10:30:44;;;;;;;12.27;10.83;;;18.70;99.90;;;;;;5064588;28;20547;-49
2022/10/23 10:33:17;;;;;;;5.93;5.47;;;18.50;99.90;;;;;;5062470;28;20197;-50
2022/10/23 10:35:51;;;;;;;4.83;4.43;;;18.50;99.90;;;;;;5066253;28;20577;-48
2022/10/23 10:38:42;;;;;;;4.20;3.80;;;18.50;99.90;;;;;;5063198;28;20209;-49
2022/10/23 10:41:41;;;;;;;2.97;2.77;;;18.60;99.90;;;;;;5056360;28;20728;-50
2022/10/23 10:44:28;;;;;;;2.23;2.13;;;18.80;99.90;;;;;;5063761;28;20197;-49
2022/10/23 10:46:59;;;;;;;2.05;1.95;;;18.60;99.90;;;;;;5061633;28;20506;-49
2022/10/23 10:49:34;;;;;;;2.50;2.40;;;18.40;99.90;;;;;;5062703;28;20288;-51
2022/10/23 10:52:11;;;;;;;4.63;3.93;;;18.30;99.90;;;;;;5071479;28;20192;-50
2022/10/23 10:54:50;;;;;;;2.70;2.60;;;18.50;99.90;;;;;;5061580;28;20654;-49
2022/10/23 10:57:32;;;;;;;4.00;3.77;;;18.70;99.90;;;;;;5053316;28;20204;-49
2022/10/23 11:00:02;;;;;;;5.03;2.93;;;18.80;99.90;;;;;;5062436;28;20193;-48
2022/10/23 11:02:33;;;;;;;3.93;3.47;;;18.70;99.90;;;;;;5060360;28;20198;-49
2022/10/23 11:05:11;;;;;;;4.27;3.00;;;18.80;99.90;;;;;;5056606;28;20222;-49
2022/10/23 11:07:48;;;;;;;3.30;3.10;;;18.90;99.90;;;;;;5069447;28;20567;-49
2022/10/23 11:10:19;;;;;;;2.10;2.00;;;18.90;99.90;;;;;;5055845;28;20193;-49
2022/10/23 11:12:50;;;;;;;4.00;1.80;;;18.90;99.90;;;;;;5056975;28;20284;-50
2022/10/23 11:15:21;;;;;;;3.90;1.50;;;19.10;99.90;;;;;;5064804;28;20216;-49
2022/10/23 11:17:52;;;;;;;1.60;1.50;;;19.00;99.90;;;;;;5060317;28;20211;-49
2022/10/23 11:20:37;;;;;;;1.30;1.20;;;19.30;99.90;;;;;;5059704;28;20210;-50
2022/10/23 11:23:23;;;;;;;3.53;1.27;;;19.50;99.90;;;;;;5053312;28;20202;-50
2022/10/23 11:26:04;;;;;;;1.30;1.30;;;19.60;99.90;;;;;;5056063;28;20252;-49
2022/10/23 11:28:52;;;;;;;2.47;2.00;;;19.30;99.90;;;;;;5064480;28;20205;-50
2022/10/23 11:31:28;;;;;;;1.77;1.10;;;19.50;99.90;;;;;;5059534;28;20216;-50
2022/10/23 11:34:08;;;;;;;3.07;2.20;;;19.60;99.90;;;;;;5064256;28;20197;-50
2022/10/23 11:36:44;;;;;;;2.00;1.90;;;19.70;99.90;;;;;;5067408;28;20193;-50
2022/10/23 11:39:20;;;;;;;3.23;3.03;;;19.60;99.90;;;;;;5056354;28;20205;-50
2022/10/23 11:41:54;;;;;;;5.93;5.30;;;19.40;99.90;;;;;;5064460;28;20202;-50
2022/10/23 11:44:28;;;;;;;3.93;3.63;;;19.10;99.90;;;;;;5060522;28;20280;-51
2022/10/23 11:47:03;;;;;;;4.33;3.93;;;19.10;99.90;;;;;;5057036;28;20221;-50
2022/10/23 11:49:31;;;;;;;3.17;2.87;;;19.20;99.90;;;;;;5061866;28;20201;-50
2022/10/23 11:52:04;;;;;;;4.63;3.40;;;19.20;99.90;;;;;;5064660;28;20255;-51
2022/10/23 11:54:32;;;;;;;2.57;2.47;;;19.00;99.90;;;;;;5062479;28;21011;-50
2022/10/23 11:57:11;;;;;;;3.83;2.50;;;18.80;99.90;;;;;;5062097;28;20206;-50
2022/10/23 11:59:52;;;;;;;2.27;2.07;;;18.40;99.90;;;;;;5056479;28;20196;-51
2022/10/23 12:02:30;;;;;;;2.13;1.93;;;18.30;99.90;;;;;;5059603;28;20201;-51
2022/10/23 12:05:01;;;;;;;2.83;2.63;;;18.20;99.90;;;;;;5055973;28;20221;-50
2022/10/23 12:07:30;;;;;;;2.07;1.97;;;18.10;99.90;;;;;;5056081;28;20217;-51
2022/10/23 12:10:02;;;;;;;2.40;2.20;;;18.00;99.90;;;;;;5061596;28;20205;-50
2022/10/23 12:12:32;;;;;;;2.63;2.53;;;17.90;99.90;;;;;;5058048;28;20725;-51
2022/10/23 12:15:19;;;;;;;2.40;2.30;;;18.00;99.90;;;;;;5056414;28;20277;-50
2022/10/23 12:17:47;;;;;;;2.67;2.57;;;18.00;99.90;;;;;;5054792;28;20201;-49
2022/10/23 12:20:47;;;;;;;4.33;2.70;;;18.10;99.90;;;;;;5060691;28;20209;-50
2022/10/23 12:23:31;;;;;;;4.87;2.60;;;18.10;99.90;;;;;;4998846;28;20215;-50
2022/10/23 12:26:28;;;;;;;3.17;2.93;;;18.00;99.90;;;;;;5054860;28;20298;-51
2022/10/23 12:29:04;;;;;;;6.53;4.67;;;17.80;99.90;;;;;;5057170;28;20724;-51
2022/10/23 12:31:42;;;;;;;5.83;2.97;;;17.60;99.90;;;;;;5058932;28;20243;-51
2022/10/23 12:34:26;;;;;;;3.23;3.03;;;17.60;99.90;;;;;;5055137;28;20208;-51
2022/10/23 12:37:08;;;;;;;6.17;5.53;;;17.60;99.90;;;;;;5058940;28;20688;-50
2022/10/23 12:39:37;;;;;;;4.30;3.47;;;17.60;99.90;;;;;;5063238;28;20201;-50
2022/10/23 12:42:15;;;;;;;3.00;2.13;;;17.50;99.90;;;;;;5061273;28;20242;-51
2022/10/23 12:44:42;;;;;;;2.97;2.00;;;17.50;99.90;;;;;;5057458;28;20221;-50
2022/10/23 12:47:18;;;;;;;3.33;2.10;;;17.30;99.90;;;;;;5059389;28;20304;-50
2022/10/23 12:49:50;;;;;;;2.03;1.77;;;17.30;99.90;;;;;;5062211;28;20288;-51
2022/10/23 12:52:19;;;;;;;3.47;3.17;;;17.30;99.90;;;;;;5065698;28;20201;-50
2022/10/23 12:54:49;;;;;;;3.03;2.37;;;17.30;99.90;;;;;;5062519;28;20225;-50
2022/10/23 12:57:21;;;;;;;1.87;1.87;;;17.00;99.90;;;;;;5066320;28;20613;-50
2022/10/23 12:59:49;;;;;;;3.10;2.90;;;17.00;99.90;;;;;;5064598;28;20285;-50
2022/10/23 13:02:23;;;;;;;4.57;3.50;;;16.90;99.90;;;;;;5067367;28;20276;-50
2022/10/23 13:04:52;;;;;;;7.97;3.27;;;16.90;99.90;;;;;;5062463;28;20263;-49